Time;durP1;ratioP1;P1;durP2;ratioP2;P2;SDS_P1;SDS_P2;PMS_P1;PMS_P2;Temp;Humidity;BMP_temperature;BMP_pressure;BME280_temperature;BME280_humidity;BME280_pressure;Samples;Min_cycle;Max_cycle;Signal;HPM_P1;HPM_P2
2022/02/25 00:03:06;;;;;;;14.13;1.98;;;;;;;2.16;100.00;100815.28;10084650;28;20130;-65
2022/02/25 00:08:03;;;;;;;11.63;2.70;;;;;;;2.16;100.00;100817.97;10108469;28;20501;-65
2022/02/25 00:13:00;;;;;;;7.65;2.13;;;;;;;2.15;100.00;100827.13;10084973;28;20055;-65
2022/02/25 00:17:57;;;;;;;11.70;2.53;;;;;;;2.23;100.00;100832.06;10081928;28;20138;-65
2022/02/25 00:22:53;;;;;;;7.85;1.92;;;;;;;2.27;100.00;100841.22;10090591;28;20125;-66
2022/02/25 00:27:50;;;;;;;11.10;2.22;;;;;;;2.28;100.00;100848.28;10083377;28;20078;-65
2022/02/25 00:32:46;;;;;;;21.10;3.50;;;;;;;2.28;100.00;100847.47;10085918;28;20047;-65
2022/02/25 00:37:43;;;;;;;17.42;2.85;;;;;;;2.29;100.00;100866.06;10082978;28;20113;-65
2022/02/25 00:42:40;;;;;;;17.63;3.97;;;;;;;2.25;100.00;100872.25;10080580;28;20050;-65
2022/02/25 00:47:37;;;;;;;20.15;3.53;;;;;;;2.22;100.00;100881.66;10087156;28;20047;-65
2022/02/25 00:52:34;;;;;;;14.32;2.40;;;;;;;2.20;100.00;100878.41;10088855;28;20051;-65
2022/02/25 00:57:30;;;;;;;15.77;2.38;;;;;;;2.14;100.00;100900.25;10094606;28;20103;-65
2022/02/25 01:02:27;;;;;;;12.13;2.70;;;;;;;2.14;100.00;100894.84;10090172;28;20043;-65
2022/02/25 01:07:26;;;;;;;10.95;2.10;;;;;;;2.07;100.00;100906.66;10075009;28;20043;-65
2022/02/25 01:12:22;;;;;;;14.25;2.40;;;;;;;2.08;100.00;100907.44;10089421;28;20190;-65
2022/02/25 01:17:19;;;;;;;21.85;2.35;;;;;;;2.07;100.00;100922.03;10079762;28;20158;-65
2022/02/25 01:22:15;;;;;;;20.42;2.08;;;;;;;2.04;100.00;100933.31;10087585;28;20047;-65
2022/02/25 01:27:12;;;;;;;15.20;1.85;;;;;;;2.09;100.00;100941.47;10078234;28;20062;-65
2022/02/25 01:32:08;;;;;;;12.13;1.85;;;;;;;2.12;100.00;100940.94;10083510;28;20070;-65
2022/02/25 01:37:05;;;;;;;16.67;1.88;;;;;;;2.16;100.00;100925.88;10079214;28;20074;-65
2022/02/25 01:42:05;;;;;;;13.10;1.77;;;;;;;2.17;100.00;100927.50;10083870;28;20102;-65
2022/02/25 01:47:05;;;;;;;12.73;2.38;;;;;;;2.21;100.00;100923.22;10083424;28;20078;-65
2022/02/25 01:52:04;;;;;;;11.40;1.70;;;;;;;2.16;100.00;100936.69;10076458;28;20174;-65
2022/02/25 01:57:01;;;;;;;14.20;2.28;;;;;;;2.12;100.00;100930.16;10078295;28;20083;-65
2022/02/25 02:01:58;;;;;;;11.85;1.42;;;;;;;2.12;100.00;100937.44;10084350;28;20055;-65
2022/02/25 02:06:55;;;;;;;15.90;2.10;;;;;;;2.08;100.00;100940.63;10089370;28;20051;-65
2022/02/25 02:11:53;;;;;;;19.38;2.63;;;;;;;2.07;100.00;100951.69;10081605;28;20043;-66
2022/02/25 02:16:53;;;;;;;16.80;2.60;;;;;;;2.08;100.00;100982.97;10077059;28;20075;-66
2022/02/25 02:21:53;;;;;;;14.70;3.35;;;;;;;2.08;100.00;100956.81;10088265;28;20484;-65
2022/02/25 02:26:52;;;;;;;12.25;1.60;;;;;;;2.17;100.00;100949.06;10082323;28;20464;-65
2022/02/25 02:31:48;;;;;;;11.15;1.73;;;;;;;2.20;100.00;100953.94;10077909;28;20452;-66
2022/02/25 02:36:47;;;;;;;12.85;3.25;;;;;;;2.24;100.00;100949.69;10084212;28;20078;-65
2022/02/25 02:41:43;;;;;;;9.52;1.90;;;;;;;2.23;100.00;100958.84;10083651;28;20047;-65
2022/02/25 02:46:41;;;;;;;7.38;1.25;;;;;;;2.16;100.00;100958.25;10084059;28;20450;-66
2022/02/25 02:51:37;;;;;;;14.02;2.83;;;;;;;2.13;100.00;100956.03;10073268;28;20043;-66
2022/02/25 02:56:34;;;;;;;7.85;1.55;;;;;;;2.22;100.00;100962.59;10083593;28;20109;-66
2022/02/25 03:01:32;;;;;;;10.20;1.90;;;;;;;2.21;100.00;100971.78;10089628;28;20122;-66
2022/02/25 03:06:29;;;;;;;13.80;1.70;;;;;;;2.15;100.00;100958.50;10088003;28;20122;-66
2022/02/25 03:11:26;;;;;;;6.88;1.20;;;;;;;2.14;100.00;100983.84;10086016;28;20044;-66
2022/02/25 03:16:22;;;;;;;11.25;3.47;;;;;;;2.17;100.00;100984.16;10088226;28;20126;-66
2022/02/25 03:21:19;;;;;;;9.75;1.80;;;;;;;2.28;100.00;100977.78;10087375;28;20043;-65
2022/02/25 03:26:15;;;;;;;9.95;1.63;;;;;;;2.28;100.00;100988.56;10087298;28;20063;-66
2022/02/25 03:31:11;;;;;;;14.00;2.65;;;;;;;2.30;100.00;100991.84;10089709;28;20074;-66
2022/02/25 03:36:08;;;;;;;7.65;1.77;;;;;;;2.29;100.00;100981.28;10096213;28;20054;-66
2022/02/25 03:41:04;;;;;;;12.48;2.00;;;;;;;2.28;100.00;100991.28;10092944;28;20129;-66
2022/02/25 03:46:01;;;;;;;9.48;2.08;;;;;;;2.29;100.00;101000.97;10089496;28;20141;-65
2022/02/25 03:50:57;;;;;;;7.65;1.92;;;;;;;2.38;100.00;101005.94;10084329;28;20083;-66
2022/02/25 03:55:54;;;;;;;9.88;1.55;;;;;;;2.44;100.00;100991.44;10087612;28;20102;-65
2022/02/25 04:00:51;;;;;;;13.10;2.35;;;;;;;2.49;100.00;100988.75;10090774;28;20050;-66
2022/02/25 04:05:47;;;;;;;20.27;2.17;;;;;;;2.51;100.00;101000.13;10080438;28;20087;-66
2022/02/25 04:10:44;;;;;;;14.98;2.00;;;;;;;2.51;100.00;101002.81;10084661;28;20150;-65
2022/02/25 04:15:41;;;;;;;18.67;2.20;;;;;;;2.54;100.00;101007.69;10095283;28;20051;-66
2022/02/25 04:20:38;;;;;;;6.40;1.80;;;;;;;2.55;100.00;101025.50;10095045;28;20122;-66
2022/02/25 04:25:34;;;;;;;7.30;1.88;;;;;;;2.47;100.00;101028.69;10085008;28;20505;-66
2022/02/25 04:30:32;;;;;;;12.63;2.85;;;;;;;2.41;100.00;101024.31;10088304;28;20043;-66
2022/02/25 04:35:28;;;;;;;11.25;1.80;;;;;;;2.37;100.00;101025.88;10099623;28;20098;-66
2022/02/25 04:40:25;;;;;;;8.00;1.40;;;;;;;2.37;100.00;101029.41;10088671;28;20078;-66
2022/02/25 04:45:22;;;;;;;10.23;2.20;;;;;;;2.34;100.00;101035.28;10102643;28;20150;-66
2022/02/25 04:50:19;;;;;;;9.13;2.25;;;;;;;2.40;100.00;101020.78;10090125;28;20489;-66
2022/02/25 04:55:15;;;;;;;13.07;2.25;;;;;;;2.44;100.00;101031.91;10077108;28;20795;-66
2022/02/25 05:00:13;;;;;;;8.65;1.73;;;;;;;2.38;100.00;101035.63;10080677;28;20106;-66
2022/02/25 05:05:10;;;;;;;9.80;1.67;;;;;;;2.34;100.00;101045.28;10084959;28;20051;-66
2022/02/25 05:10:08;;;;;;;7.85;2.00;;;;;;;2.29;100.00;101044.16;10092869;28;20142;-66
2022/02/25 05:20:26;;;;;;;14.27;2.05;;;;;;;2.28;100.00;101063.31;10094267;28;20071;-66
2022/02/25 05:25:23;;;;;;;9.38;1.48;;;;;;;2.29;100.00;101076.53;10096455;28;20131;-65
2022/02/25 05:30:20;;;;;;;14.32;2.03;;;;;;;2.36;100.00;101048.53;10088941;28;20047;-65
2022/02/25 05:35:17;;;;;;;12.15;1.67;;;;;;;2.42;100.00;101064.53;10085811;28;20074;-66
2022/02/25 05:40:19;;;;;;;8.60;1.15;;;;;;;2.50;100.00;101065.94;10082960;28;20156;-66
2022/02/25 05:45:19;;;;;;;17.48;2.00;;;;;;;2.60;100.00;101076.88;10091585;28;20058;-66
2022/02/25 05:50:18;;;;;;;18.00;3.28;;;;;;;2.64;100.00;101050.97;10074037;28;20154;-66
2022/02/25 05:55:17;;;;;;;14.07;1.80;;;;;;;2.71;100.00;101066.97;10075616;28;20082;-66
2022/02/25 06:00:16;;;;;;;12.93;1.77;;;;;;;2.73;100.00;101068.31;10073575;28;20067;-67
2022/02/25 06:05:13;;;;;;;7.90;1.73;;;;;;;2.78;100.00;101077.56;10076128;28;20106;-66
2022/02/25 06:10:10;;;;;;;14.32;2.47;;;;;;;2.83;100.00;101080.28;10075593;28;20186;-66
2022/02/25 06:15:08;;;;;;;12.15;2.50;;;;;;;2.86;100.00;101085.19;10087601;28;21660;-67
2022/02/25 06:20:05;;;;;;;13.02;1.67;;;;;;;2.83;100.00;101069.47;10074628;28;20438;-66
2022/02/25 06:25:02;;;;;;;9.82;1.80;;;;;;;2.80;100.00;101086.22;10073870;28;20403;-68
2022/02/25 06:29:59;;;;;;;15.30;2.15;;;;;;;2.74;100.00;101088.88;10073958;28;20134;-67
2022/02/25 06:34:55;;;;;;;15.02;2.92;;;;;;;2.71;100.00;101089.38;10080725;28;20453;-67
2022/02/25 06:39:51;;;;;;;14.48;1.70;;;;;;;2.70;100.00;101098.56;10088907;28;20051;-67
2022/02/25 06:44:49;;;;;;;10.55;2.33;;;;;;;2.78;100.00;101077.56;10080697;28;20039;-68
2022/02/25 06:49:46;;;;;;;15.13;2.58;;;;;;;2.76;100.00;101082.38;10079713;28;20113;-67
2022/02/25 06:54:43;;;;;;;11.15;2.55;;;;;;;2.82;100.00;101094.88;10089129;28;20205;-67
2022/02/25 06:59:39;;;;;;;13.50;2.58;;;;;;;2.88;100.00;101120.88;10085771;28;20520;-67
2022/02/25 07:04:35;;;;;;;18.63;2.42;;;;;;;2.99;100.00;101089.34;10097910;28;20051;-67
2022/02/25 07:09:32;;;;;;;18.70;2.83;;;;;;;3.01;100.00;101104.22;10112424;28;20425;-67
2022/02/25 07:14:28;;;;;;;11.70;2.53;;;;;;;3.02;100.00;101122.06;10090940;28;20074;-67
2022/02/25 07:19:25;;;;;;;10.27;2.83;;;;;;;2.94;100.00;101099.03;10101502;28;20059;-67
2022/02/25 07:24:22;;;;;;;12.07;2.30;;;;;;;2.96;100.00;101109.59;10080096;28;20059;-67
2022/02/25 07:29:18;;;;;;;7.85;2.05;;;;;;;2.95;100.00;101107.97;10080016;28;20047;-68
2022/02/25 07:34:15;;;;;;;18.90;4.20;;;;;;;3.05;100.00;101110.75;10082185;28;20071;-67
2022/02/25 07:39:11;;;;;;;11.80;2.65;;;;;;;3.01;100.00;101112.31;10079675;28;20055;-67
2022/02/25 07:44:08;;;;;;;15.98;2.88;;;;;;;3.09;100.00;101109.16;10078366;28;20046;-67
2022/02/25 07:49:04;;;;;;;11.55;2.00;;;;;;;3.28;100.00;101108.75;10095052;28;20070;-67
2022/02/25 07:54:03;;;;;;;17.45;3.60;;;;;;;3.40;100.00;101095.84;10083168;28;20477;-68
2022/02/25 07:58:59;;;;;;;10.05;2.65;;;;;;;3.54;100.00;101097.03;10078662;28;20450;-68
2022/02/25 08:03:56;;;;;;;15.73;3.17;;;;;;;3.65;100.00;101103.31;10082944;28;20504;-67
2022/02/25 08:08:52;;;;;;;14.73;2.35;;;;;;;3.61;100.00;101133.84;10078007;28;20075;-68
2022/02/25 08:13:49;;;;;;;15.35;2.78;;;;;;;3.56;100.00;101100.28;10089245;28;20501;-67
2022/02/25 08:18:45;;;;;;;14.88;2.25;;;;;;;3.43;100.00;101132.38;10096799;28;20049;-67
2022/02/25 08:23:43;;;;;;;18.27;4.15;;;;;;;3.15;100.00;101132.44;10076815;28;20090;-67
2022/02/25 08:28:40;;;;;;;15.70;2.70;;;;;;;3.14;100.00;101157.03;10086846;28;20139;-67
2022/02/25 08:33:39;;;;;;;8.88;3.65;;;;;;;3.08;100.00;101121.03;10081584;28;20077;-67
2022/02/25 08:38:36;;;;;;;11.05;3.42;;;;;;;3.03;100.00;101134.50;10102797;28;20058;-68
2022/02/25 08:43:32;;;;;;;17.90;4.63;;;;;;;2.85;100.00;101151.88;10091711;28;20473;-67
2022/02/25 08:48:37;;;;;;;18.25;3.88;;;;;;;2.90;100.00;101149.25;10077084;28;20047;-67
2022/02/25 08:53:33;;;;;;;16.42;4.13;;;;;;;2.81;100.00;101158.88;10079311;28;20074;-67
2022/02/25 08:58:29;;;;;;;10.43;3.75;;;;;;;2.83;100.00;101161.31;10077069;28;20051;-67
2022/02/25 09:03:26;;;;;;;16.63;6.32;;;;;;;2.86;100.00;101160.81;10115467;28;20043;-67
2022/02/25 09:08:23;;;;;;;15.50;5.03;;;;;;;2.97;100.00;101167.97;10076304;28;20051;-67
2022/02/25 09:13:19;;;;;;;19.73;5.03;;;;;;;2.95;100.00;101170.09;10076543;28;20086;-67
2022/02/25 09:18:16;;;;;;;9.32;3.20;;;;;;;2.91;100.00;101177.06;10075843;28;20051;-67
2022/02/25 09:23:15;;;;;;;11.57;4.05;;;;;;;2.89;100.00;101168.41;10074985;28;20047;-67
2022/02/25 09:28:12;;;;;;;15.70;4.35;;;;;;;3.03;100.00;101183.13;10075202;28;20565;-67
2022/02/25 09:33:09;;;;;;;15.70;5.13;;;;;;;3.31;100.00;101178.50;10075021;28;20055;-67
2022/02/25 09:38:06;;;;;;;15.95;3.88;;;;;;;3.43;100.00;101181.84;10089758;28;20521;-67
2022/02/25 09:43:03;;;;;;;8.77;3.20;;;;;;;3.40;100.00;101170.75;10081629;28;20098;-67
2022/02/25 09:47:59;;;;;;;8.38;3.50;;;;;;;3.42;100.00;101196.44;10089083;28;20051;-67
2022/02/25 09:52:56;;;;;;;16.60;3.75;;;;;;;3.41;100.00;101212.91;10080347;28;20047;-67
2022/02/25 09:57:53;;;;;;;13.20;3.95;;;;;;;3.46;100.00;101208.38;10083292;28;20039;-68
2022/02/25 10:02:53;;;;;;;12.27;4.18;;;;;;;3.45;100.00;101195.09;10076234;28;20047;-66
2022/02/25 10:07:51;;;;;;;14.30;3.83;;;;;;;3.34;100.00;101221.22;10086377;28;20065;-67
2022/02/25 10:12:57;;;;;;;15.73;4.15;;;;;;;3.43;100.00;101198.06;10092877;28;20062;-67
2022/02/25 10:18:00;;;;;;;15.00;4.65;;;;;;;3.40;100.00;101214.00;10081667;28;20461;-67
2022/02/25 10:22:57;;;;;;;;;;;;;;;3.34;100.00;101232.03;10097650;28;20501;-67
2022/02/25 10:27:55;;;;;;;13.85;4.15;;;;;;;3.16;100.00;101225.94;10092425;28;19927;-67
2022/02/25 10:32:55;;;;;;;14.32;4.50;;;;;;;2.86;100.00;101258.06;10091536;28;20054;-66
2022/02/25 10:38:18;;;;;;;19.67;7.97;;;;;;;2.71;100.00;101247.88;10089619;28;20113;-67
2022/02/25 10:43:17;;;;;;;17.45;7.40;;;;;;;2.71;100.00;101262.19;10089590;28;20090;-66
2022/02/25 10:48:16;;;;;;;11.57;5.50;;;;;;;2.61;100.00;101278.25;10086673;28;20074;-67
2022/02/25 10:53:14;;;;;;;16.65;8.02;;;;;;;2.68;100.00;101261.88;10091543;28;20070;-66
2022/02/25 10:58:10;;;;;;;10.70;5.28;;;;;;;2.89;100.00;101268.34;10092172;28;20058;-66
2022/02/25 11:03:17;;;;;;;16.83;5.97;;;;;;;3.27;100.00;101263.88;10092039;28;20086;-65
2022/02/25 11:08:15;;;;;;;17.67;5.22;;;;;;;3.34;100.00;101265.31;10089958;28;20059;-67
2022/02/25 11:13:15;;;;;;;19.05;4.57;;;;;;;3.30;100.00;101268.78;10082721;28;20062;-66
2022/02/25 11:18:12;;;;;;;10.55;3.92;;;;;;;3.24;100.00;101269.78;10094389;28;20666;-66
2022/02/25 11:23:12;;;;;;;12.07;4.70;;;;;;;3.40;100.00;101259.94;10095369;28;20069;-66
2022/02/25 11:28:09;;;;;;;14.65;4.10;;;;;;;3.55;100.00;101271.72;10106213;28;20101;-66
2022/02/25 11:33:15;;;;;;;12.43;3.63;;;;;;;3.73;100.00;101261.56;10097223;28;20054;-66
2022/02/25 11:38:11;;;;;;;14.15;3.13;;;;;;;4.21;100.00;101262.44;10094846;28;20047;-66
2022/02/25 11:43:08;;;;;;;11.90;2.65;;;;;;;4.73;100.00;101250.75;10094329;28;20114;-66
2022/02/25 11:48:05;;;;;;;10.73;2.40;;;;;;;5.01;100.00;101254.09;10090809;28;20556;-66
2022/02/25 11:53:16;;;;;;;14.20;2.70;;;;;;;5.32;100.00;101237.91;10100463;28;20097;-65
2022/02/25 11:58:51;;;;;;;12.75;2.42;;;;;;;5.37;100.00;101263.13;10084019;28;20145;-66
2022/02/25 12:03:57;;;;;;;8.85;2.33;;;;;;;5.17;100.00;101263.91;10092864;28;20040;-66
2022/02/25 12:08:58;;;;;;;13.35;2.80;;;;;;;4.59;100.00;101263.19;10084868;28;20102;-67
2022/02/25 12:13:55;;;;;;;8.30;1.80;;;;;;;4.53;100.00;101264.25;10079280;28;20055;-66
2022/02/25 12:18:51;;;;;;;6.00;1.33;;;;;;;4.47;100.00;101254.47;10088443;28;20490;-67
2022/02/25 12:23:49;;;;;;;10.65;1.40;;;;;;;4.40;100.00;101247.38;10080930;28;20134;-66
2022/02/25 12:28:53;;;;;;;10.68;2.08;;;;;;;4.26;100.00;101277.91;10082434;28;20047;-67
2022/02/25 12:33:53;;;;;;;8.02;1.23;;;;;;;3.90;100.00;101316.38;10077411;28;20079;-66
2022/02/25 12:39:07;;;;;;;3.55;0.82;;;;;;;3.64;100.00;101312.59;10082258;28;20051;-66
2022/02/25 12:44:25;;;;;;;11.50;1.17;;;;;;;3.77;100.00;101300.56;10085285;28;20102;-66
2022/02/25 12:49:24;;;;;;;10.55;1.20;;;;;;;3.93;100.00;101310.44;10080773;28;20059;-67
2022/02/25 12:54:24;;;;;;;6.57;0.80;;;;;;;3.86;100.00;101320.66;10088036;28;20067;-66
2022/02/25 12:59:30;;;;;;;4.05;0.80;;;;;;;3.97;100.00;101316.97;10080788;28;20067;-66
2022/02/25 13:04:29;;;;;;;6.35;0.60;;;;;;;4.58;100.00;101315.72;10083154;28;20428;-66
2022/02/25 13:09:29;;;;;;;6.03;0.60;;;;;;;5.74;100.00;101310.91;10078375;28;20505;-67
2022/02/25 13:14:27;;;;;;;5.65;0.65;;;;;;;7.15;100.00;101301.91;10084785;28;20074;-66
2022/02/25 13:19:29;;;;;;;3.50;0.80;;;;;;;7.61;100.00;101308.94;10081960;28;20050;-67
2022/02/25 13:24:25;;;;;;;5.47;0.82;;;;;;;7.69;100.00;101305.63;10079797;28;20125;-67
2022/02/25 13:29:22;;;;;;;9.63;1.27;;;;;;;7.46;100.00;101317.22;10086145;28;20106;-66
2022/02/25 13:34:18;;;;;;;11.38;1.38;;;;;;;6.71;100.00;101307.28;10077794;28;20097;-66
2022/02/25 13:39:29;;;;;;;9.35;1.23;;;;;;;6.02;100.00;101306.84;10080037;28;20082;-66
2022/02/25 13:44:34;;;;;;;9.45;1.35;;;;;;;5.77;100.00;101304.13;10084031;28;20138;-66
2022/02/25 13:54:51;;;;;;;12.18;1.38;;;;;;;5.56;100.00;101298.69;10097707;28;20134;-66
2022/02/25 13:59:53;;;;;;;15.05;1.65;;;;;;;5.46;100.00;101309.53;10084687;28;20501;-66
2022/02/25 14:05:11;;;;;;;11.23;1.15;;;;;;;5.20;100.00;101339.28;10079773;28;20071;-64
2022/02/25 14:10:30;;;;;;;6.03;0.82;;;;;;;4.51;100.00;101389.06;10077622;28;20055;-66
2022/02/25 14:15:28;;;;;;;10.13;1.40;;;;;;;4.32;100.00;101387.88;10087939;28;20047;-66
2022/02/25 14:20:27;;;;;;;5.97;0.93;;;;;;;4.72;100.00;101387.31;10088941;28;20074;-66
2022/02/25 14:25:33;;;;;;;5.88;0.98;;;;;;;4.60;100.00;101384.00;10090831;28;20071;-66
2022/02/25 14:30:32;;;;;;;14.65;2.10;;;;;;;4.54;100.00;101385.03;10092167;28;20390;-66
2022/02/25 14:35:29;;;;;;;9.90;1.45;;;;;;;4.55;100.00;101392.06;10090260;28;20406;-66
2022/02/25 14:40:28;;;;;;;16.52;1.95;;;;;;;4.30;100.00;101407.06;10090411;28;20050;-66
2022/02/25 14:45:27;;;;;;;12.20;1.52;;;;;;;4.45;100.00;101413.66;10089650;28;20063;-66
2022/02/25 14:50:27;;;;;;;11.00;1.67;;;;;;;4.50;100.00;101414.50;10093188;28;20043;-66
2022/02/25 14:55:25;;;;;;;11.50;1.70;;;;;;;4.51;100.00;101428.88;10093694;28;20047;-66
2022/02/25 15:00:24;;;;;;;15.95;1.45;;;;;;;4.51;100.00;101450.56;10100755;28;20529;-65
2022/02/25 15:05:22;;;;;;;17.45;2.22;;;;;;;4.50;100.00;101444.31;10103067;28;20055;-66
2022/02/25 15:10:22;;;;;;;19.98;2.05;;;;;;;4.49;100.00;101460.81;10097970;28;20589;-66
2022/02/25 15:15:20;;;;;;;10.80;1.42;;;;;;;4.41;100.00;101476.47;10095899;28;20441;-66
2022/02/25 15:20:19;;;;;;;10.85;1.50;;;;;;;4.53;100.00;101480.91;10095133;28;20548;-66
2022/02/25 15:25:16;;;;;;;19.10;2.17;;;;;;;4.52;100.00;101511.75;10089497;28;20051;-66
2022/02/25 15:30:15;;;;;;;14.43;1.83;;;;;;;4.53;100.00;101525.06;10099817;28;20091;-67
2022/02/25 15:35:12;;;;;;;13.65;1.70;;;;;;;4.40;100.00;101534.41;10093291;28;20109;-66
2022/02/25 15:40:09;;;;;;;10.50;2.05;;;;;;;4.38;100.00;101541.94;10100501;28;20043;-65
2022/02/25 15:45:06;;;;;;;8.88;1.55;;;;;;;4.34;100.00;101554.38;10101921;28;20050;-66
2022/02/25 15:50:04;;;;;;;15.70;2.45;;;;;;;4.50;100.00;101568.06;10096321;28;20090;-66
2022/02/25 15:55:02;;;;;;;15.65;4.43;;;;;;;4.57;100.00;101574.09;10087927;28;20057;-66
2022/02/25 15:59:59;;;;;;;15.43;2.33;;;;;;;4.59;100.00;101589.00;10097024;28;20134;-66
2022/02/25 16:04:55;;;;;;;10.82;2.22;;;;;;;4.63;100.00;101606.38;10085171;28;20110;-66
2022/02/25 16:09:52;;;;;;;9.40;1.40;;;;;;;4.71;100.00;101612.41;10085592;28;20094;-66
2022/02/25 16:14:48;;;;;;;9.07;2.20;;;;;;;4.64;100.00;101631.56;10096671;28;20118;-66
2022/02/25 16:19:45;;;;;;;17.50;2.60;;;;;;;4.62;100.00;101636.47;10086853;28;20109;-66
2022/02/25 16:24:41;;;;;;;16.48;2.53;;;;;;;4.62;100.00;101653.53;10097819;28;20484;-66
2022/02/25 16:29:38;;;;;;;17.83;2.22;;;;;;;4.52;100.00;101658.00;10101466;28;20097;-67
2022/02/25 16:34:34;;;;;;;13.65;2.92;;;;;;;4.49;100.00;101680.19;10092134;28;20070;-67
2022/02/25 16:39:32;;;;;;;17.83;2.55;;;;;;;4.45;100.00;101685.28;10094889;28;20047;-66
2022/02/25 16:44:28;;;;;;;23.00;3.97;;;;;;;4.43;100.00;101692.81;10089509;28;20091;-66
2022/02/25 16:49:26;;;;;;;26.48;3.45;;;;;;;4.44;100.00;101716.16;10089419;28;20042;-67
2022/02/25 16:54:22;;;;;;;22.23;3.15;;;;;;;4.45;100.00;101738.63;10080045;28;20133;-66
2022/02/25 16:59:25;;;;;;;29.48;4.72;;;;;;;4.40;100.00;101759.16;10078240;28;20405;-66
2022/02/25 17:04:22;;;;;;;23.40;3.15;;;;;;;4.37;100.00;101770.50;10085748;28;20054;-66
2022/02/25 17:09:21;;;;;;;35.38;4.40;;;;;;;4.47;100.00;101790.66;10087640;28;20043;-66
2022/02/25 17:14:19;;;;;;;28.23;4.22;;;;;;;4.51;100.00;101808.03;10080098;28;20121;-66
2022/02/25 17:19:16;;;;;;;29.67;3.35;;;;;;;4.49;100.00;101810.19;10089024;28;20070;-66
2022/02/25 17:24:13;;;;;;;26.10;3.92;;;;;;;4.51;100.00;101832.41;10084692;28;20059;-66
2022/02/25 17:29:12;;;;;;;36.03;4.97;;;;;;;4.50;100.00;101845.13;10072449;28;20035;-66
2022/02/25 17:34:09;;;;;;;28.05;5.28;;;;;;;4.46;100.00;101849.41;10087240;28;20074;-66
2022/02/25 17:39:05;;;;;;;27.15;4.57;;;;;;;4.46;100.00;101859.44;10089477;28;20035;-66
2022/02/25 17:44:03;;;;;;;25.45;4.50;;;;;;;4.43;100.00;101867.00;10082882;28;20129;-65
2022/02/25 17:48:59;;;;;;;26.83;4.68;;;;;;;4.46;100.00;101873.78;10086118;28;20039;-65
2022/02/25 17:53:56;;;;;;;27.40;4.72;;;;;;;4.40;100.00;101894.53;10080381;28;20414;-65
2022/02/25 17:58:53;;;;;;;41.30;4.25;;;;;;;4.40;100.00;101899.97;10084805;28;20069;-66
2022/02/25 18:03:49;;;;;;;37.20;6.65;;;;;;;4.33;100.00;101904.72;10074453;28;20498;-65
2022/02/25 18:08:46;;;;;;;33.08;4.95;;;;;;;4.27;100.00;101911.16;10082191;28;20137;-66
2022/02/25 18:13:44;;;;;;;42.50;6.45;;;;;;;4.23;100.00;101931.66;10088005;28;20047;-66
2022/02/25 18:18:41;;;;;;;40.75;7.15;;;;;;;4.18;100.00;101928.88;10081888;28;20090;-66
2022/02/25 18:23:37;;;;;;;44.13;6.75;;;;;;;4.16;100.00;101944.53;10085820;28;20067;-65
2022/02/25 18:28:34;;;;;;;38.53;6.90;;;;;;;4.12;100.00;101956.91;10076954;28;20122;-64
2022/02/25 18:33:50;;;;;;;43.42;6.28;;;;;;;4.07;100.00;101965.75;10091723;28;20126;-64
2022/02/25 18:38:47;;;;;;;51.30;5.85;;;;;;;4.04;100.00;101987.06;10086805;28;20031;-65
2022/02/25 18:43:44;;;;;;;37.72;6.10;;;;;;;4.04;100.00;101997.88;10084192;28;20390;-64
2022/02/25 18:48:40;;;;;;;42.22;6.03;;;;;;;4.00;100.00;102009.19;10091668;28;20047;-65
2022/02/25 18:53:37;;;;;;;40.35;4.88;;;;;;;3.99;100.00;102023.81;10084282;28;20046;-66
2022/02/25 18:58:34;;;;;;;36.47;5.38;;;;;;;3.98;100.00;102032.97;10101881;28;20129;-64
2022/02/25 19:03:30;;;;;;;34.17;5.38;;;;;;;3.95;100.00;102049.69;10091702;28;20046;-65
2022/02/25 19:08:27;;;;;;;44.60;8.05;;;;;;;3.95;100.00;102065.94;10077853;28;20039;-65
2022/02/25 19:13:24;;;;;;;40.47;5.28;;;;;;;3.90;100.00;102068.56;10105688;28;20047;-65
2022/02/25 19:18:20;;;;;;;40.45;7.95;;;;;;;3.87;100.00;102074.41;10086154;28;20125;-65
2022/02/25 19:23:17;;;;;;;38.85;7.30;;;;;;;3.86;100.00;102089.03;10085221;28;20122;-64
2022/02/25 19:28:13;;;;;;;42.78;6.10;;;;;;;3.84;100.00;102107.38;10102305;28;20046;-65
2022/02/25 19:33:10;;;;;;;30.67;5.90;;;;;;;3.80;100.00;102112.44;10081625;28;20043;-65
2022/02/25 19:38:06;;;;;;;36.42;5.88;;;;;;;3.80;100.00;102122.44;10093945;28;20097;-65
2022/02/25 19:43:02;;;;;;;30.52;4.47;;;;;;;3.76;100.00;102132.09;10095581;28;20078;-66
2022/02/25 19:47:59;;;;;;;24.70;4.32;;;;;;;3.75;100.00;102154.78;10087277;28;20039;-66
2022/02/25 19:52:55;;;;;;;47.15;5.35;;;;;;;3.72;100.00;102160.69;10099465;28;20047;-66
2022/02/25 19:57:53;;;;;;;31.55;4.88;;;;;;;3.74;100.00;102182.91;10088887;28;20472;-66
2022/02/25 20:02:49;;;;;;;32.03;4.03;;;;;;;3.76;100.00;102186.19;10091509;28;20577;-66
2022/02/25 20:07:46;;;;;;;40.85;4.90;;;;;;;3.79;100.00;102191.16;10089178;28;20070;-65
2022/02/25 20:12:43;;;;;;;37.00;4.22;;;;;;;3.80;100.00;102195.47;10090294;28;20485;-66
2022/02/25 20:17:40;;;;;;;25.70;3.97;;;;;;;3.77;100.00;102198.66;10078682;28;20078;-65
2022/02/25 20:22:39;;;;;;;22.02;3.63;;;;;;;3.77;100.00;102206.78;10092626;28;20038;-66
2022/02/25 20:27:35;;;;;;;34.85;4.57;;;;;;;3.77;100.00;102225.72;10090205;28;20581;-65
2022/02/25 20:32:32;;;;;;;32.83;6.78;;;;;;;3.77;100.00;102239.25;10106352;28;20043;-65
2022/02/25 20:37:28;;;;;;;33.17;5.28;;;;;;;3.82;100.00;102244.78;10093466;28;20042;-66
2022/02/25 20:42:30;;;;;;;32.97;5.53;;;;;;;3.83;100.00;102251.84;10079103;28;20059;-66
2022/02/25 20:47:27;;;;;;;27.45;4.13;;;;;;;3.91;100.00;102254.19;10088040;28;20557;-66
2022/02/25 20:52:25;;;;;;;33.47;4.65;;;;;;;3.93;100.00;102279.13;10089166;28;20051;-67
2022/02/25 20:57:22;;;;;;;35.95;4.60;;;;;;;3.97;100.00;102269.50;10085509;28;20134;-66
2022/02/25 21:02:19;;;;;;;35.00;5.07;;;;;;;4.00;100.00;102284.44;10091526;28;20055;-66
2022/02/25 21:07:16;;;;;;;33.50;5.05;;;;;;;3.97;100.00;102274.91;10094492;28;20036;-66
2022/02/25 21:12:14;;;;;;;37.15;5.07;;;;;;;4.06;100.00;102282.66;10086534;28;20047;-66
2022/02/25 21:17:10;;;;;;;25.52;4.13;;;;;;;4.08;100.00;102285.97;10085017;28;20043;-66
2022/02/25 21:22:07;;;;;;;38.00;5.07;;;;;;;4.12;100.00;102292.56;10082878;28;20046;-65
2022/02/25 21:27:04;;;;;;;23.55;4.30;;;;;;;4.18;100.00;102297.84;10085134;28;20062;-66
2022/02/25 21:32:00;;;;;;;42.28;5.00;;;;;;;4.23;100.00;102305.28;10082480;28;20086;-66
2022/02/25 21:37:02;;;;;;;34.13;3.67;;;;;;;4.27;100.00;102314.56;10088057;28;20047;-66
2022/02/25 21:41:58;;;;;;;46.25;4.03;;;;;;;4.32;100.00;102314.69;10092316;28;20051;-66
2022/02/25 21:46:56;;;;;;;24.45;3.55;;;;;;;4.35;100.00;102322.31;10081008;28;20077;-66
2022/02/25 21:51:52;;;;;;;38.10;5.00;;;;;;;4.36;100.00;102326.69;10085671;28;20035;-67
2022/02/25 21:56:49;;;;;;;32.85;4.75;;;;;;;4.41;100.00;102328.69;10084176;28;20106;-66
2022/02/25 22:01:46;;;;;;;22.30;3.67;;;;;;;4.42;100.00;102323.03;10083044;28;20753;-66
2022/02/25 22:06:43;;;;;;;31.15;4.35;;;;;;;4.46;100.00;102330.69;10082936;28;20501;-66
2022/02/25 22:11:40;;;;;;;30.25;3.88;;;;;;;4.46;100.00;102336.13;10087427;28;20074;-66
2022/02/25 22:16:37;;;;;;;36.25;5.00;;;;;;;4.47;100.00;102354.00;10077883;28;20102;-66
2022/02/25 22:21:34;;;;;;;27.77;3.90;;;;;;;4.49;100.00;102349.16;10080639;28;20047;-66
2022/02/25 22:26:31;;;;;;;23.92;3.90;;;;;;;4.50;100.00;102358.94;10082681;28;20050;-66
2022/02/25 22:31:27;;;;;;;28.95;4.30;;;;;;;4.51;100.00;102377.66;10080585;28;20082;-66
2022/02/25 22:36:24;;;;;;;33.47;6.57;;;;;;;4.50;100.00;102380.59;10082547;28;20517;-66
2022/02/25 22:41:22;;;;;;;18.30;2.72;;;;;;;4.52;100.00;102397.44;10091683;28;20138;-66
2022/02/25 22:46:18;;;;;;;30.52;4.70;;;;;;;4.56;100.00;102412.19;10085276;28;20200;-66
2022/02/25 23:01:45;;;;;;;32.78;5.25;;;;;;;4.62;100.00;102436.44;10077382;28;20138;-66